createdAt,value
2016-08-23T00:00:58.689Z,99.99
2016-08-23T00:01:58.598Z,99.99
2016-08-23T00:02:58.600Z,99.99
2016-08-23T00:03:58.602Z,99.99
2016-08-23T00:04:58.673Z,99.99
2016-08-23T00:05:58.690Z,99.99
2016-08-23T00:06:58.687Z,99.99
2016-08-23T00:07:58.614Z,99.99
2016-08-23T00:08:58.607Z,99.99
2016-08-23T00:09:58.678Z,99.99
2016-08-23T00:10:58.684Z,99.99
2016-08-23T00:11:58.691Z,99.99
2016-08-23T00:12:58.615Z,99.99
2016-08-23T00:13:58.614Z,99.99
2016-08-23T00:14:58.684Z,99.99
2016-08-23T00:15:58.617Z,99.99
2016-08-23T00:16:58.682Z,99.99
2016-08-23T00:17:58.621Z,99.99
2016-08-23T00:18:58.690Z,99.99
2016-08-23T00:19:58.697Z,99.99
2016-08-23T00:20:58.623Z,99.99
2016-08-23T00:21:58.625Z,99.99
2016-08-23T00:22:58.698Z,99.99
2016-08-23T00:23:58.700Z,99.99
2016-08-23T00:24:58.708Z,99.99
2016-08-23T00:25:58.712Z,99.99
2016-08-23T00:26:58.701Z,99.99
2016-08-23T00:27:58.631Z,99.99
2016-08-23T00:28:58.712Z,99.99
2016-08-23T00:29:58.726Z,99.99
2016-08-23T00:30:58.706Z,99.99
2016-08-23T00:31:58.710Z,99.99
2016-08-23T00:32:58.719Z,99.99
2016-08-23T00:33:58.711Z,99.99
2016-08-23T00:34:58.648Z,99.99
2016-08-23T00:35:58.639Z,99.99
2016-08-23T00:36:58.644Z,99.99
2016-08-23T00:37:58.711Z,99.99
2016-08-23T00:38:58.723Z,99.99
2016-08-23T00:39:58.657Z,99.99
2016-08-23T00:40:58.650Z,99.99
2016-08-23T00:41:58.731Z,99.99
2016-08-23T00:42:58.658Z,99.99
2016-08-23T00:43:58.657Z,99.99
2016-08-23T00:44:58.659Z,99.99
2016-08-23T00:45:58.734Z,99.99
2016-08-23T00:46:58.663Z,99.99
2016-08-23T00:47:58.743Z,99.99
2016-08-23T00:48:58.778Z,99.99
2016-08-23T00:49:58.659Z,99.99
2016-08-23T00:50:58.732Z,99.99
2016-08-23T00:51:58.747Z,99.99
2016-08-23T00:52:58.741Z,99.99
2016-08-23T00:53:58.667Z,99.99
2016-08-23T00:54:58.746Z,99.99
2016-08-23T00:55:58.676Z,99.99
2016-08-23T00:56:58.764Z,99.99
2016-08-23T00:57:58.749Z,99.99
2016-08-23T00:58:58.680Z,99.99
2016-08-23T00:59:58.758Z,99.99
2016-08-23T01:00:58.685Z,99.99
2016-08-23T01:01:58.682Z,99.99
2016-08-23T01:02:58.672Z,99.99
2016-08-23T01:03:58.760Z,99.99
2016-08-23T01:04:58.807Z,99.99
2016-08-23T01:05:58.787Z,99.99
2016-08-23T01:06:58.820Z,99.99
2016-08-23T01:07:58.756Z,99.99
2016-08-23T01:08:58.769Z,99.99
2016-08-23T01:09:58.694Z,99.99
2016-08-23T01:10:58.692Z,99.99
2016-08-23T01:11:58.775Z,99.99
2016-08-23T01:12:58.693Z,99.99
2016-08-23T01:13:58.817Z,99.99
2016-08-23T01:14:58.694Z,99.99
2016-08-23T01:15:58.700Z,99.99
2016-08-23T01:16:58.792Z,99.99
2016-08-23T01:17:58.706Z,99.99
2016-08-23T01:18:58.780Z,99.99
2016-08-23T01:19:58.780Z,99.99
2016-08-23T01:20:58.704Z,99.99
2016-08-23T01:21:58.781Z,99.99
2016-08-23T01:22:58.727Z,99.99
2016-08-23T01:23:58.776Z,99.99
2016-08-23T01:24:58.719Z,99.99
2016-08-23T01:25:58.711Z,99.99
2016-08-23T01:26:58.721Z,99.99
2016-08-23T01:27:58.709Z,99.99
2016-08-23T01:28:58.789Z,99.99
2016-08-23T01:29:58.718Z,99.99
2016-08-23T01:30:58.802Z,99.99
2016-08-23T01:31:58.718Z,99.99
2016-08-23T01:32:58.810Z,99.99
2016-08-23T01:33:58.733Z,99.99
2016-08-23T01:34:58.818Z,99.99
2016-08-23T01:35:58.720Z,99.99
2016-08-23T01:36:58.735Z,99.99
2016-08-23T01:37:58.810Z,99.99
2016-08-23T01:38:58.817Z,99.99
2016-08-23T01:39:58.729Z,99.99
2016-08-23T01:40:58.736Z,99.99
2016-08-23T01:41:58.813Z,99.99
2016-08-23T01:42:58.824Z,99.99
2016-08-23T01:43:58.735Z,99.99
2016-08-23T01:44:58.746Z,99.99
2016-08-23T01:45:58.737Z,99.99
2016-08-23T01:46:58.740Z,99.99
2016-08-23T01:47:58.817Z,99.99
2016-08-23T01:48:58.818Z,99.99
2016-08-23T01:49:58.751Z,99.99
2016-08-23T01:50:58.826Z,99.99
2016-08-23T01:51:58.745Z,99.99
2016-08-23T01:52:58.749Z,99.99
2016-08-23T01:53:58.820Z,99.99
2016-08-23T01:54:58.752Z,99.99
2016-08-23T01:55:58.746Z,99.99
2016-08-23T01:56:58.835Z,99.99
2016-08-23T01:57:58.756Z,99.99
2016-08-23T01:58:58.832Z,99.99
2016-08-23T01:59:58.840Z,99.99
2016-08-23T02:00:58.753Z,99.99
2016-08-23T02:01:58.757Z,99.99
2016-08-23T02:02:58.845Z,99.99
2016-08-23T02:03:58.772Z,99.99
2016-08-23T02:04:58.845Z,99.99
2016-08-23T02:05:58.842Z,99.99
2016-08-23T02:06:58.768Z,99.99
2016-08-23T02:07:58.769Z,99.99
2016-08-23T02:08:58.862Z,99.99
2016-08-23T02:09:58.772Z,99.99
2016-08-23T02:10:58.855Z,99.99
2016-08-23T02:11:58.774Z,99.99
2016-08-23T02:12:58.857Z,99.99
2016-08-23T02:13:58.782Z,99.99
2016-08-23T02:14:58.775Z,99.99
2016-08-23T02:15:58.893Z,99.99
2016-08-23T02:16:58.791Z,99.99
2016-08-23T02:17:58.895Z,99.99
2016-08-23T02:18:58.892Z,99.99
2016-08-23T02:19:58.833Z,99.99
2016-08-23T02:20:58.830Z,99.99
2016-08-23T02:21:58.790Z,99.99
2016-08-23T02:22:58.868Z,99.99
2016-08-23T02:23:58.788Z,99.99
2016-08-23T02:24:58.868Z,99.99
2016-08-23T02:25:58.884Z,99.99
2016-08-23T02:26:58.882Z,99.99
2016-08-23T02:27:58.867Z,99.99
2016-08-23T02:28:58.873Z,99.99
2016-08-23T02:29:58.896Z,99.99
2016-08-23T02:30:58.794Z,99.99
2016-08-23T02:31:58.880Z,99.99
2016-08-23T02:32:58.813Z,99.99
2016-08-23T02:33:58.798Z,99.99
2016-08-23T02:34:58.883Z,99.99
2016-08-23T02:35:58.887Z,99.99
2016-08-23T02:36:58.805Z,99.99
2016-08-23T02:37:58.891Z,99.99
2016-08-23T02:38:58.883Z,99.99
2016-08-23T02:39:58.806Z,99.99
2016-08-23T02:40:58.842Z,99.99
2016-08-23T02:41:58.887Z,99.99
2016-08-23T02:42:58.892Z,99.99
2016-08-23T02:43:58.899Z,99.99
2016-08-23T02:44:58.891Z,99.99
2016-08-23T02:45:58.822Z,99.99
2016-08-23T02:46:58.901Z,99.99
2016-08-23T02:47:58.817Z,99.99
2016-08-23T02:48:58.906Z,99.99
2016-08-23T02:49:58.897Z,99.99
2016-08-23T02:50:58.904Z,99.99
2016-08-23T02:51:58.904Z,99.99
2016-08-23T02:52:58.910Z,99.99
2016-08-23T02:53:58.902Z,99.99
2016-08-23T02:54:58.835Z,99.99
2016-08-23T02:55:58.917Z,99.99
2016-08-23T02:56:58.836Z,99.99
2016-08-23T02:57:58.914Z,99.99
2016-08-23T02:58:58.912Z,99.99
2016-08-23T02:59:58.830Z,99.99
2016-08-23T03:00:58.919Z,99.99
2016-08-23T03:01:58.925Z,99.99
2016-08-23T03:02:58.914Z,99.99
2016-08-23T03:03:58.922Z,99.99
2016-08-23T03:04:58.843Z,99.99
2016-08-23T03:05:58.923Z,99.99
2016-08-23T03:06:58.848Z,99.99
2016-08-23T03:07:58.924Z,99.99
2016-08-23T03:08:58.944Z,99.99
2016-08-23T03:09:58.922Z,99.99
2016-08-23T03:10:58.855Z,99.99
2016-08-23T03:11:58.862Z,99.99
2016-08-23T03:12:58.939Z,99.99
2016-08-23T03:13:58.852Z,99.99
2016-08-23T03:14:58.853Z,99.99
2016-08-23T03:15:58.864Z,99.99
2016-08-23T03:16:58.863Z,99.99
2016-08-23T03:17:58.855Z,99.99
2016-08-23T03:18:58.860Z,99.99
2016-08-23T03:19:58.937Z,99.99
2016-08-23T03:20:58.863Z,99.99
2016-08-23T03:21:58.946Z,99.99
2016-08-23T03:22:58.973Z,99.99
2016-08-23T03:23:58.954Z,99.99
2016-08-23T03:24:58.946Z,99.99
2016-08-23T03:25:58.900Z,99.99
2016-08-23T03:26:58.953Z,99.99
2016-08-23T03:27:58.878Z,99.99
2016-08-23T03:28:58.949Z,99.99
2016-08-23T03:29:58.955Z,99.99
2016-08-23T03:30:58.881Z,99.99
2016-08-23T03:31:58.955Z,99.99
2016-08-23T03:32:58.885Z,99.99
2016-08-23T03:33:58.971Z,99.99
2016-08-23T03:34:58.958Z,99.99
2016-08-23T03:35:58.963Z,99.99
2016-08-23T03:36:58.959Z,99.99
2016-08-23T03:37:58.900Z,99.99
2016-08-23T03:38:58.904Z,99.99
2016-08-23T03:39:58.965Z,99.99
2016-08-23T03:40:58.965Z,99.99
2016-08-23T03:41:58.969Z,99.99
2016-08-23T03:42:58.893Z,99.99
2016-08-23T03:43:58.901Z,99.99
2016-08-23T03:44:58.896Z,99.99
2016-08-23T03:45:58.920Z,99.99
2016-08-23T03:46:58.980Z,99.99
2016-08-23T03:47:58.981Z,99.99
2016-08-23T03:48:58.902Z,99.99
2016-08-23T03:49:59.020Z,99.99
2016-08-23T03:50:58.976Z,99.99
2016-08-23T03:51:58.917Z,99.99
2016-08-23T03:52:58.991Z,99.99
2016-08-23T03:53:58.911Z,99.99
2016-08-23T03:54:59.003Z,99.99
2016-08-23T03:55:58.917Z,99.99
2016-08-23T03:56:58.924Z,99.99
2016-08-23T03:57:58.997Z,99.99
2016-08-23T03:58:58.919Z,99.99
2016-08-23T03:59:59.013Z,99.99
2016-08-23T04:00:59.004Z,99.99
2016-08-23T04:01:58.920Z,99.99
2016-08-23T04:02:59.001Z,99.99
2016-08-23T04:03:59.005Z,99.99
2016-08-23T04:04:59.022Z,99.99
2016-08-23T04:05:58.926Z,99.99
2016-08-23T04:06:58.938Z,99.99
2016-08-23T04:07:59.001Z,99.99
2016-08-23T04:08:58.930Z,99.99
2016-08-23T04:09:59.018Z,99.99
2016-08-23T04:10:59.022Z,99.99
2016-08-23T04:11:58.941Z,99.99
2016-08-23T04:12:58.932Z,99.99
2016-08-23T04:13:58.937Z,99.99
2016-08-23T04:14:58.943Z,99.99
2016-08-23T04:15:58.934Z,99.99
2016-08-23T04:16:59.024Z,99.99
2016-08-23T04:17:59.023Z,99.99
2016-08-23T04:18:58.949Z,99.99
2016-08-23T04:19:58.945Z,99.99
2016-08-23T04:20:59.024Z,99.99
2016-08-23T04:21:58.950Z,99.99
2016-08-23T04:22:58.955Z,99.99
2016-08-23T04:23:58.956Z,99.99
2016-08-23T04:24:58.953Z,99.99
2016-08-23T04:25:59.045Z,99.99
2016-08-23T04:26:59.034Z,99.99
2016-08-23T04:27:58.953Z,99.99
2016-08-23T04:28:58.972Z,99.99
2016-08-23T04:29:58.965Z,99.99
2016-08-23T04:30:59.033Z,99.99
2016-08-23T04:31:59.071Z,99.99
2016-08-23T04:32:58.965Z,99.99
2016-08-23T04:33:58.965Z,99.99
2016-08-23T04:34:58.978Z,99.99
2016-08-23T04:35:58.964Z,99.99
2016-08-23T04:36:58.967Z,99.99
2016-08-23T04:37:59.055Z,99.99
2016-08-23T04:38:59.053Z,99.99
2016-08-23T04:39:59.048Z,99.99
2016-08-23T04:40:58.972Z,99.99
2016-08-23T04:41:59.120Z,99.99
2016-08-23T04:42:59.082Z,99.99
2016-08-23T04:43:59.115Z,99.99
2016-08-23T04:44:59.518Z,99.99
2016-08-23T04:45:58.982Z,99.99
2016-08-23T04:46:59.066Z,99.99
2016-08-23T04:47:59.057Z,99.99
2016-08-23T04:48:59.030Z,99.99
2016-08-23T04:49:58.995Z,99.99
2016-08-23T04:50:59.067Z,99.99
2016-08-23T04:51:59.069Z,99.99
2016-08-23T04:52:59.065Z,99.99
2016-08-23T04:53:59.077Z,99.99
2016-08-23T04:54:58.993Z,99.99
2016-08-23T04:55:58.988Z,99.99
2016-08-23T04:56:59.095Z,99.99
2016-08-23T04:57:59.069Z,99.99
2016-08-23T04:58:59.064Z,99.99
2016-08-23T04:59:59.013Z,99.99
2016-08-23T05:00:59.014Z,99.99
2016-08-23T05:01:58.993Z,99.99
2016-08-23T05:02:59.074Z,99.99
2016-08-23T05:03:59.070Z,99.99
2016-08-23T05:04:58.999Z,99.99
2016-08-23T05:05:59.084Z,99.99
2016-08-23T05:06:59.012Z,99.99
2016-08-23T05:07:59.010Z,99.99
2016-08-23T05:08:59.009Z,99.99
2016-08-23T05:09:59.741Z,99.99
2016-08-23T05:10:59.008Z,99.99
2016-08-23T05:11:59.039Z,99.99
2016-08-23T05:12:59.042Z,99.99
2016-08-23T05:13:59.899Z,99.99
2016-08-23T05:14:59.022Z,99.99
2016-08-23T05:15:59.105Z,99.99
2016-08-23T05:16:59.100Z,99.99
2016-08-23T05:17:59.102Z,99.99
2016-08-23T05:18:59.222Z,99.99
2016-08-23T05:19:59.200Z,99.99
2016-08-23T05:20:59.099Z,99.99
2016-08-23T05:21:59.150Z,99.99
2016-08-23T05:23:00.412Z,99.99
2016-08-23T05:24:00.059Z,99.99
2016-08-23T05:24:59.049Z,99.99
2016-08-23T05:25:59.802Z,99.99
2016-08-23T05:26:59.124Z,99.99
2016-08-23T05:27:59.050Z,99.99
2016-08-23T05:28:59.057Z,99.99
2016-08-23T05:29:59.128Z,99.99
2016-08-23T05:30:59.051Z,99.99
2016-08-23T05:31:59.125Z,99.99
2016-08-23T05:32:59.118Z,99.99
2016-08-23T05:33:59.094Z,99.99
2016-08-23T05:35:01.184Z,99.99
2016-08-23T05:35:59.046Z,99.99
2016-08-23T05:36:59.054Z,99.99
2016-08-23T05:37:59.349Z,99.99
2016-08-23T05:38:59.048Z,99.99
2016-08-23T05:39:59.066Z,99.99
2016-08-23T05:40:59.059Z,99.99
2016-08-23T05:41:59.056Z,99.99
2016-08-23T05:42:59.168Z,99.99
2016-08-23T05:43:59.063Z,99.99
2016-08-23T05:44:59.135Z,99.99
2016-08-23T05:45:59.134Z,99.99
2016-08-23T05:46:59.134Z,99.99
2016-08-23T05:47:59.144Z,99.99
2016-08-23T05:48:59.077Z,99.99
2016-08-23T05:49:59.141Z,99.99
2016-08-23T05:50:59.145Z,99.99
2016-08-23T05:51:59.070Z,99.99
2016-08-23T05:52:59.144Z,99.99
2016-08-23T05:53:59.076Z,99.99
2016-08-23T05:54:59.114Z,99.99
2016-08-23T05:55:59.186Z,99.99
2016-08-23T05:56:59.069Z,99.99
2016-08-23T05:57:59.153Z,99.99
2016-08-23T05:58:59.149Z,99.99
2016-08-23T05:59:59.084Z,99.99
2016-08-23T06:00:59.126Z,99.99
2016-08-23T06:01:59.171Z,99.99
2016-08-23T06:02:59.162Z,99.99
2016-08-23T06:03:59.155Z,99.99
2016-08-23T06:04:59.277Z,99.99
2016-08-23T06:05:59.162Z,99.99
2016-08-23T06:06:59.208Z,99.99
2016-08-23T06:08:00.834Z,99.99
2016-08-23T06:08:59.101Z,99.99
2016-08-23T06:09:59.218Z,99.99
2016-08-23T06:10:59.189Z,99.99
2016-08-23T06:11:59.139Z,99.99
2016-08-23T06:12:59.173Z,99.99
2016-08-23T06:13:59.172Z,99.99
2016-08-23T06:14:59.098Z,99.99
2016-08-23T06:15:59.121Z,99.99
2016-08-23T06:16:59.180Z,99.99
2016-08-23T06:17:59.105Z,99.99
2016-08-23T06:18:59.182Z,99.99
2016-08-23T06:19:59.113Z,99.99
2016-08-23T06:20:59.113Z,99.99
2016-08-23T06:21:59.112Z,99.99
2016-08-23T06:22:59.123Z,99.99
2016-08-23T06:23:59.114Z,99.99
2016-08-23T06:24:59.126Z,99.99
2016-08-23T06:25:59.123Z,99.99
2016-08-23T06:26:59.202Z,99.99
2016-08-23T06:27:59.145Z,99.99
2016-08-23T06:28:59.194Z,99.99
2016-08-23T06:29:59.149Z,99.99
2016-08-23T06:30:59.327Z,99.99
2016-08-23T06:31:59.123Z,99.99
2016-08-23T06:32:59.129Z,99.99
2016-08-23T06:33:59.204Z,99.99
2016-08-23T06:34:59.224Z,99.99
2016-08-23T06:35:59.131Z,99.99
2016-08-23T06:36:59.230Z,99.99
2016-08-23T06:37:59.250Z,99.99
2016-08-23T06:38:59.152Z,99.99
2016-08-23T06:39:59.219Z,99.99
2016-08-23T06:40:59.135Z,99.99
2016-08-23T06:41:59.224Z,99.99
2016-08-23T06:42:59.153Z,99.99
2016-08-23T06:43:59.181Z,99.99
2016-08-23T06:44:59.182Z,99.99
2016-08-23T06:45:59.151Z,99.99
2016-08-23T06:46:59.160Z,99.99
2016-08-23T06:47:59.141Z,99.99
2016-08-23T06:48:59.876Z,99.99
2016-08-23T06:49:59.230Z,99.99
2016-08-23T06:50:59.393Z,99.99
2016-08-23T06:51:59.171Z,99.99
2016-08-23T06:52:59.194Z,99.99
2016-08-23T06:53:59.153Z,99.99
2016-08-23T06:54:59.245Z,99.99
2016-08-23T06:55:59.283Z,99.99
2016-08-23T06:56:59.184Z,99.99
2016-08-23T06:57:59.340Z,99.99
2016-08-23T06:58:59.289Z,99.99
2016-08-23T06:59:59.859Z,99.99
2016-08-23T07:00:59.244Z,99.99
2016-08-23T07:01:59.274Z,99.99
2016-08-23T07:02:59.268Z,99.99
2016-08-23T07:03:59.345Z,99.99
2016-08-23T07:04:59.177Z,99.99
2016-08-23T07:05:59.257Z,99.99
2016-08-23T07:06:59.243Z,99.99
2016-08-23T07:07:59.202Z,99.99
2016-08-23T07:08:59.227Z,99.99
2016-08-23T07:09:59.183Z,99.99
2016-08-23T07:10:59.247Z,99.99
2016-08-23T07:11:59.378Z,99.99
2016-08-23T07:12:59.186Z,99.99
2016-08-23T07:13:59.220Z,99.99
2016-08-23T07:14:59.262Z,99.99
2016-08-23T07:15:59.197Z,99.99
2016-08-23T07:16:59.195Z,99.99
2016-08-23T07:17:59.202Z,99.99
2016-08-23T07:18:59.227Z,99.99
2016-08-23T07:19:59.235Z,99.99
2016-08-23T07:20:59.317Z,99.99
2016-08-23T07:21:59.199Z,99.99
2016-08-23T07:22:59.199Z,99.99
2016-08-23T07:23:59.299Z,99.99
2016-08-23T07:25:00.388Z,99.99
2016-08-23T07:25:59.330Z,99.99
2016-08-23T07:26:59.290Z,99.99
2016-08-23T07:27:59.373Z,99.99
2016-08-23T07:29:00.847Z,99.99
2016-08-23T07:29:59.219Z,99.99
2016-08-23T07:30:59.883Z,99.99
2016-08-23T07:31:59.323Z,99.99
2016-08-23T07:32:59.304Z,99.99
2016-08-23T07:33:59.329Z,99.21
2016-08-23T07:34:59.268Z,99.99
2016-08-23T07:35:59.262Z,99.99
2016-08-23T07:36:59.275Z,99.99
2016-08-23T07:37:59.320Z,99.99
2016-08-23T07:39:03.711Z,99.99
2016-08-23T07:40:02.176Z,99.99
2016-08-23T07:40:59.340Z,98.92
2016-08-23T07:41:59.242Z,99.11
2016-08-23T07:42:59.348Z,98.24
2016-08-23T07:43:59.236Z,99.99
2016-08-23T07:44:59.254Z,98.77
2016-08-23T07:45:59.387Z,99.99
2016-08-23T07:46:59.266Z,99.64
2016-08-23T07:47:59.309Z,99.3
2016-08-23T07:48:59.243Z,99.01
2016-08-23T07:49:59.293Z,98.24
2016-08-23T07:50:59.678Z,98
2016-08-23T07:52:00.724Z,95.5
2016-08-23T07:52:59.401Z,96.75
2016-08-23T07:53:59.270Z,97.14
2016-08-23T07:55:59.452Z,97.96
2016-08-23T07:56:59.435Z,96.94
2016-08-23T07:57:59.268Z,96.94
2016-08-23T07:58:59.348Z,96.03
2016-08-23T07:59:59.262Z,96.17
2016-08-23T08:00:59.270Z,97.14
2016-08-23T08:01:59.295Z,98.24
2016-08-23T08:02:59.378Z,97.09
2016-08-23T08:03:59.395Z,94.34
2016-08-23T08:04:59.347Z,94.68
2016-08-23T08:05:59.459Z,92.56
2016-08-23T08:06:59.393Z,93.33
2016-08-23T08:07:59.450Z,93.04
2016-08-23T08:08:59.356Z,90.54
2016-08-23T08:09:59.383Z,90.58
2016-08-23T08:10:59.291Z,91.6
2016-08-23T08:11:59.315Z,92.66
2016-08-23T08:12:59.592Z,91.41
2016-08-23T08:14:02.272Z,91.55
2016-08-23T08:14:59.372Z,91.55
2016-08-23T08:15:59.388Z,91.64
2016-08-23T08:17:06.409Z,90.68
2016-08-23T08:17:59.401Z,90.78
2016-08-23T08:18:59.421Z,91.16
2016-08-23T08:20:00.352Z,91.55
2016-08-23T08:20:59.534Z,92.32
2016-08-23T08:22:00.845Z,91.02
2016-08-23T08:22:59.464Z,90.3
2016-08-23T08:23:59.360Z,90.34
2016-08-23T08:24:59.374Z,88.17
2016-08-23T08:25:59.401Z,88.26
2016-08-23T08:26:59.421Z,88.75
2016-08-23T08:27:59.326Z,87.97
2016-08-23T08:29:00.389Z,88.75
2016-08-23T08:29:59.438Z,88.45
2016-08-23T08:30:59.363Z,85.7
2016-08-23T08:32:00.237Z,84.44
2016-08-23T08:32:59.420Z,84.74
2016-08-23T08:33:59.341Z,83.96
2016-08-23T08:34:59.502Z,85.8
2016-08-23T08:35:59.606Z,85.7
2016-08-23T08:36:59.452Z,84.97
2016-08-23T08:38:00.101Z,85.8
2016-08-23T08:38:59.361Z,85.6
2016-08-23T08:39:59.336Z,84.44
2016-08-23T08:40:59.525Z,84.1
2016-08-23T08:41:59.593Z,83.04
2016-08-23T08:42:59.568Z,82.89
2016-08-23T08:43:59.343Z,83.18
2016-08-23T08:44:59.435Z,83.33
2016-08-23T08:45:59.413Z,83.81
2016-08-23T08:46:59.337Z,83.14
2016-08-23T08:47:59.623Z,83.23
2016-08-23T08:48:59.442Z,84.93
2016-08-23T08:49:59.576Z,85.66
2016-08-23T08:50:59.360Z,86.14
2016-08-23T08:51:59.420Z,84.11
2016-08-23T08:52:59.365Z,83.81
2016-08-23T08:53:59.453Z,83.04
2016-08-23T08:54:59.443Z,82.26
2016-08-23T08:55:59.446Z,82.21
2016-08-23T08:56:59.518Z,80.99
2016-08-23T08:57:59.553Z,78.42
2016-08-23T08:58:59.367Z,77.45
2016-08-23T08:59:59.387Z,78.67
2016-08-23T09:00:59.436Z,80.91
2016-08-23T09:01:59.393Z,79.99
2016-08-23T09:02:59.371Z,79.99
2016-08-23T09:04:00.439Z,78.87
2016-08-23T09:04:59.477Z,78.81
2016-08-23T09:05:59.470Z,79.2
2016-08-23T09:06:59.435Z,77.11
2016-08-23T09:07:59.369Z,75.5
2016-08-23T09:08:59.460Z,72.21
2016-08-23T09:09:59.447Z,73.27
2016-08-23T09:10:59.605Z,75.02
2016-08-23T09:11:59.559Z,75.6
2016-08-23T09:12:59.471Z,73.11
2016-08-23T09:13:59.388Z,73.11
2016-08-23T09:14:59.385Z,74.18
2016-08-23T09:16:00.733Z,74.24
2016-08-23T09:16:59.688Z,73.21
2016-08-23T09:18:02.956Z,74.18
2016-08-23T09:19:02.545Z,73.69
2016-08-23T09:19:59.751Z,75.17
2016-08-23T09:20:59.637Z,74.69
2016-08-23T09:21:59.733Z,75.27
2016-08-23T09:22:59.549Z,75.78
2016-08-23T09:23:59.651Z,75.13
2016-08-23T09:25:00.342Z,76.01
2016-08-23T09:26:00.660Z,75.43
2016-08-23T09:27:01.702Z,74.21
2016-08-23T09:27:59.914Z,72.98
2016-08-23T09:28:59.711Z,73.24
2016-08-23T09:29:59.690Z,72.56
2016-08-23T09:30:59.605Z,72.69
2016-08-23T09:31:59.658Z,72.89
2016-08-23T09:33:00.519Z,72.44
2016-08-23T09:34:00.224Z,71.7
2016-08-23T09:34:59.612Z,72.44
2016-08-23T09:35:59.777Z,72.15
2016-08-23T09:36:59.681Z,72.11
2016-08-23T09:38:00.178Z,72.46
2016-08-23T09:38:59.554Z,73.66
2016-08-23T09:39:59.668Z,73.33
2016-08-23T09:40:59.623Z,73.53
2016-08-23T09:42:00.825Z,73.08
2016-08-23T09:42:59.664Z,72.79
2016-08-23T09:43:59.694Z,71.99
2016-08-23T09:45:00.883Z,71.5
2016-08-23T09:45:59.706Z,70.03
2016-08-23T09:47:00.964Z,69.76
2016-08-23T09:48:00.742Z,72.34
2016-08-23T09:48:59.628Z,71.56
2016-08-23T09:49:59.660Z,72.47
2016-08-23T09:50:59.887Z,74.43
2016-08-23T09:52:00.323Z,74.05
2016-08-23T09:52:59.638Z,72.63
2016-08-23T09:53:59.657Z,70.86
2016-08-23T09:55:00.229Z,70.7
2016-08-23T09:55:59.630Z,69.44
2016-08-23T09:56:59.632Z,70.86
2016-08-23T09:57:59.550Z,69.89
2016-08-23T09:58:59.667Z,69.15
2016-08-23T10:00:00.266Z,68.7
2016-08-23T10:00:59.976Z,68.28
2016-08-23T10:01:59.700Z,68.15
2016-08-23T10:02:59.730Z,67.83
2016-08-23T10:04:00.359Z,69.51
2016-08-23T10:04:59.767Z,70.9
2016-08-23T10:05:59.807Z,71.34
2016-08-23T10:06:59.710Z,71.15
2016-08-23T10:07:59.614Z,71.25
2016-08-23T10:08:59.921Z,69.24
2016-08-23T10:09:59.685Z,68.54
2016-08-23T10:10:59.561Z,69.64
2016-08-23T10:11:59.729Z,69.83
2016-08-23T10:12:59.713Z,70.99
2016-08-23T10:14:00.301Z,70.7
2016-08-23T10:14:59.651Z,70.54
2016-08-23T10:15:59.660Z,68.77
2016-08-23T10:16:59.678Z,68.9
2016-08-23T10:17:59.690Z,70.39
2016-08-23T10:18:59.751Z,69.76
2016-08-23T10:19:59.649Z,68.28
2016-08-23T10:20:59.647Z,66.4
2016-08-23T10:21:59.668Z,67.28
2016-08-23T10:22:59.553Z,68.7
2016-08-23T10:23:59.679Z,67.76
2016-08-23T10:25:00.563Z,66.47
2016-08-23T10:25:59.530Z,66.4
2016-08-23T10:27:00.517Z,65.43
2016-08-23T10:27:59.646Z,65.75
2016-08-23T10:28:59.775Z,65.69
2016-08-23T10:29:59.648Z,65.59
2016-08-23T10:30:59.745Z,65.85
2016-08-23T10:31:59.604Z,66.31
2016-08-23T10:32:59.656Z,67.18
2016-08-23T10:33:59.667Z,66.5
2016-08-23T10:34:59.667Z,66.6
2016-08-23T10:36:00.242Z,66.17
2016-08-23T10:36:59.770Z,65.85
2016-08-23T10:37:59.643Z,64.42
2016-08-23T10:38:59.677Z,65.5
2016-08-23T10:39:59.729Z,66.56
2016-08-23T10:41:00.710Z,66.86
2016-08-23T10:41:59.639Z,66.6
2016-08-23T10:42:59.756Z,67.96
2016-08-23T10:43:59.717Z,68.05
2016-08-23T10:45:00.317Z,67.6
2016-08-23T10:46:00.293Z,67.6
2016-08-23T10:47:00.177Z,67.73
2016-08-23T10:47:59.772Z,67.02
2016-08-23T10:48:59.672Z,66.27
2016-08-23T10:49:59.656Z,65.46
2016-08-23T10:51:00.486Z,63.68
2016-08-23T10:51:59.749Z,64.69
2016-08-23T10:52:59.775Z,66.76
2016-08-23T10:53:59.778Z,68.18
2016-08-23T10:54:59.971Z,67.54
2016-08-23T10:55:59.652Z,66.4
2016-08-23T10:56:59.864Z,64.29
2016-08-23T10:57:59.757Z,65.5
2016-08-23T10:58:59.642Z,65.3
2016-08-23T10:59:59.832Z,64.52
2016-08-23T11:00:59.849Z,63.84
2016-08-23T11:02:01.889Z,64.07
2016-08-23T11:03:00.267Z,64.69
2016-08-23T11:03:59.823Z,64.55
2016-08-23T11:04:59.836Z,62.66
2016-08-23T11:05:59.771Z,63.15
2016-08-23T11:06:59.857Z,62.86
2016-08-23T11:07:59.751Z,63.58
2016-08-23T11:09:00.182Z,64.81
2016-08-23T11:09:59.850Z,65.56
2016-08-23T11:10:59.720Z,63.75
2016-08-23T11:11:59.972Z,62.41
2016-08-23T11:12:59.688Z,62.7
2016-08-23T11:13:59.862Z,60.33
2016-08-23T11:15:00.811Z,60.58
2016-08-23T11:15:59.668Z,59.44
2016-08-23T11:16:59.971Z,59.86
2016-08-23T11:17:59.852Z,59.74
2016-08-23T11:18:59.766Z,61.27
2016-08-23T11:19:59.744Z,60.58
2016-08-23T11:20:59.767Z,60.39
2016-08-23T11:21:59.901Z,60.29
2016-08-23T11:22:59.706Z,61.33
2016-08-23T11:23:59.776Z,61.53
2016-08-23T11:24:59.830Z,60.65
2016-08-23T11:25:59.774Z,60.29
2016-08-23T11:27:00.358Z,59.41
2016-08-23T11:27:59.863Z,59.44
2016-08-23T11:28:59.773Z,60.35
2016-08-23T11:29:59.781Z,59.28
2016-08-23T11:30:59.683Z,59.86
2016-08-23T11:31:59.811Z,59.47
2016-08-23T11:32:59.803Z,58.98
2016-08-23T11:33:59.900Z,60.71
2016-08-23T11:34:59.860Z,62.02
2016-08-23T11:35:59.827Z,60.65
2016-08-23T11:36:59.879Z,60.68
2016-08-23T11:37:59.882Z,59.64
2016-08-23T11:38:59.910Z,59.28
2016-08-23T11:39:59.887Z,59.18
2016-08-23T11:40:59.780Z,58.42
2016-08-23T11:41:59.671Z,58.72
2016-08-23T11:42:59.743Z,60.32
2016-08-23T11:43:59.836Z,59.41
2016-08-23T11:45:00.560Z,61.98
2016-08-23T11:45:59.792Z,65.04
2016-08-23T11:46:59.741Z,65.37
2016-08-23T11:47:59.770Z,64.55
2016-08-23T11:48:59.766Z,62.08
2016-08-23T11:49:59.713Z,60.39
2016-08-23T11:50:59.872Z,59.64
2016-08-23T11:51:59.678Z,59.47
2016-08-23T11:53:59.811Z,61.52
2016-08-23T11:54:59.843Z,64.29
2016-08-23T11:55:59.778Z,64.91
2016-08-23T11:56:59.755Z,63.94
2016-08-23T11:57:59.854Z,64.07
2016-08-23T11:58:59.863Z,65.5
2016-08-23T11:59:59.936Z,63.78
2016-08-23T12:00:59.800Z,61.92
2016-08-23T12:02:00.458Z,59.83
2016-08-23T12:03:00.416Z,61.46
2016-08-23T12:03:59.838Z,61.56
2016-08-23T12:04:59.795Z,60.91
2016-08-23T12:05:59.754Z,59.28
2016-08-23T12:06:59.799Z,59.18
2016-08-23T12:07:59.912Z,58.98
2016-08-23T12:08:59.835Z,59.5
2016-08-23T12:09:59.887Z,59.18
2016-08-23T12:10:59.817Z,59.28
2016-08-23T12:11:59.937Z,58.4
2016-08-23T12:13:00.534Z,58.69
2016-08-23T12:13:59.700Z,58.16
2016-08-23T12:14:59.829Z,58.55
2016-08-23T12:15:59.844Z,59.23
2016-08-23T12:16:59.799Z,57.77
2016-08-23T12:17:59.795Z,56.33
2016-08-23T12:18:59.795Z,55.47
2016-08-23T12:19:59.830Z,55.7
2016-08-23T12:20:59.814Z,54.6
2016-08-23T12:21:59.801Z,54.55
2016-08-23T12:22:59.769Z,53.72
2016-08-23T12:23:59.781Z,54.48
2016-08-23T12:24:59.803Z,54.89
2016-08-23T12:25:59.813Z,55.74
2016-08-23T12:26:59.804Z,55.55
2016-08-23T12:27:59.971Z,56.62
2016-08-23T12:28:59.925Z,57.67
2016-08-23T12:29:59.984Z,56.33
2016-08-23T12:30:59.825Z,55.51
2016-08-23T12:31:59.868Z,56.54
2016-08-23T12:32:59.834Z,54.62
2016-08-23T12:33:59.977Z,54.46
2016-08-23T12:34:59.810Z,54.25
2016-08-23T12:35:59.901Z,54.13
2016-08-23T12:36:59.770Z,54.55
2016-08-23T12:37:59.819Z,54.62
2016-08-23T12:38:59.852Z,55.21
2016-08-23T12:39:59.983Z,55.77
2016-08-23T12:40:59.933Z,57.67
2016-08-23T12:41:59.894Z,58.89
2016-08-23T12:42:59.917Z,58.34
2016-08-23T12:43:59.896Z,57.78
2016-08-23T12:45:00.557Z,57.64
2016-08-23T12:45:59.788Z,57.97
2016-08-23T12:46:59.991Z,58.52
2016-08-23T12:48:00.643Z,57.89
2016-08-23T12:48:59.958Z,56.52
2016-08-23T12:49:59.816Z,55.43
2016-08-23T12:50:59.873Z,55.14
2016-08-23T12:51:59.848Z,54.77
2016-08-23T12:52:59.833Z,54.58
2016-08-23T12:53:59.874Z,54.85
2016-08-23T12:54:59.802Z,55.7
2016-08-23T12:55:59.848Z,56.46
2016-08-23T12:56:59.906Z,57.82